Latest Weather Observations for Macquarie Island*

IDT60801

Issued at 7:33 pm EDT Friday 19 December 2014 (issued every 30 minutes, with the page automatically refreshed every 10 minutes)

About weather observations | Map of weather stations | Latest weather observations for ANT | Other Formats
Station Details ID: 300004 Name: MACQUARIE ISLAND Lat: -54.50 Lon: 158.94 Height: 6.0 m
Data from the previous 72 hours. | See also: Recent months at Macquarie Island*
Date/Time
EDT
Temp
°C
App
Temp
°C
Dew
Point
Rel
Hum
%
Delta-T
°C
Wind Press
QNH
hPa
Press
MSL
hPa
Rain
since 9 am
mm
Dir
 
Spd
km/h
Gust
km/h
Spd
kts
Gust
kts
19/07:30pm 7.8 3.5 5.3 84 1.1 N 17 35 9 19 1004.1 - 0.0
19/07:00pm 7.8 3.1 5.3 84 1.1 N 19 35 10 19 1004.4 - 0.0
19/06:30pm 7.9 4.4 5.4 84 1.1 NNE 13 28 7 15 1004.7 - 0.0
19/06:00pm 8.2 4.8 5.7 84 1.1 N 13 35 7 19 1005.0 1005.3 0.0
19/05:30pm 8.2 4.8 5.7 84 1.1 N 13 30 7 16 1005.2 - 0.0
19/05:00pm 8.4 3.2 5.7 83 1.2 N 22 39 12 21 1005.7 - 0.0
19/04:30pm 9.0 3.5 5.7 80 1.5 N 24 46 13 25 1006.0 - 0.0
19/04:00pm 9.0 2.7 5.7 80 1.5 N 28 61 15 33 1006.4 - 0.0
19/03:30pm 9.4 3.2 6.1 80 1.5 N 28 52 15 28 1006.7 - 0.0
19/03:00pm 8.7 2.4 5.6 81 1.4 N 28 50 15 27 1007.0 1007.3 0.0
19/02:30pm 9.2 3.7 6.1 81 1.4 N 24 44 13 24 1007.3 - 0.0
19/02:00pm 9.6 3.4 6.3 80 1.5 N 28 52 15 28 1007.6 - 0.0
19/01:30pm 9.7 2.9 6.8 82 1.4 N 32 57 17 31 1008.0 - 0.0
19/01:01pm 9.2 2.1 6.3 82 1.3 N 33 52 18 28 1008.2 - 0.0
19/01:00pm 9.3 1.9 6.6 83 1.3 N 35 52 19 28 1008.2 - 0.0
19/12:31pm 9.3 2.4 6.6 83 1.3 N 32 52 17 28 1008.5 - 0.0
19/12:30pm 9.3 2.4 6.6 83 1.3 N 32 48 17 26 1008.5 - 0.0
19/12:13pm 9.6 2.8 6.9 83 1.3 N 32 50 17 27 1008.7 - 0.0
19/12:00pm 9.8 2.8 6.7 81 1.5 N 33 48 18 26 1008.9 1009.2 0.0
19/11:30am 9.8 2.9 7.1 83 1.3 N 33 48 18 26 1009.1 - 0.0
19/11:00am 9.2 1.8 6.8 85 1.1 N 35 54 19 29 1009.4 - 0.0
19/10:38am 9.1 1.4 6.9 86 1.0 N 37 57 20 31 1009.5 - 0.0
19/10:30am 9.0 1.6 6.8 86 1.0 N 35 50 19 27 1009.6 - 0.0
19/10:02am 9.0 1.6 6.6 85 1.1 N 35 54 19 29 1009.6 - 0.0
19/10:00am 9.2 1.5 7.0 86 1.0 N 37 54 20 29 1009.7 - 0.0
19/09:30am 9.0 0.9 7.0 87 0.9 N 39 54 21 29 1009.9 - 0.0
19/09:00am 8.5 0.0 6.8 89 0.8 N 41 54 22 29 1010.0 1010.3 0.2
19/08:30am 8.5 0.4 7.0 90 0.7 N 39 52 21 28 1010.2 - 0.2
19/08:00am 8.4 0.3 6.9 90 0.7 N 39 54 21 29 1010.4 - 0.2
19/07:30am 8.2 0.0 6.7 90 0.7 N 39 54 21 29 1010.5 - 0.2
19/07:00am 8.2 0.4 6.8 91 0.6 N 37 48 20 26 1010.4 - 0.2
19/06:30am 7.9 0.1 6.7 92 0.6 N 37 48 20 26 1010.4 - 0.2
19/06:00am 8.0 0.2 6.8 92 0.6 N 37 46 20 25 1010.4 1010.7 0.2
19/05:30am 7.7 0.3 6.6 93 0.5 N 35 46 19 25 1010.4 - 0.2
19/05:00am 7.5 0.6 6.6 94 0.4 N 32 41 17 22 1010.4 - 0.2
19/04:30am 7.4 0.9 6.5 94 0.4 N 30 37 16 20 1010.4 - 0.2
19/04:00am 7.6 1.5 6.5 93 0.5 N 28 35 15 19 1010.6 - 0.2
19/03:47am 7.7 0.3 6.6 93 0.5 N 35 54 19 29 1010.5 - 0.2
19/03:30am 7.5 1.0 6.4 93 0.5 N 30 37 16 20 1010.6 - 0.2
19/03:00am 7.6 0.1 6.5 93 0.5 N 35 46 19 25 1010.6 1010.9 0.2
19/02:30am 7.4 0.3 6.3 93 0.5 N 33 41 18 22 1010.6 - 0.2
19/02:00am 7.5 0.6 6.4 93 0.5 N 32 44 17 24 1010.5 - 0.2
19/01:30am 7.5 0.4 6.4 93 0.5 N 33 43 18 23 1010.5 - 0.2
19/01:00am 7.6 0.7 6.5 93 0.5 N 32 43 17 23 1010.6 - 0.2
19/12:30am 7.4 1.2 6.3 93 0.5 N 28 35 15 19 1010.8 - 0.2
19/12:00am 7.0 1.9 5.9 93 0.5 N 22 30 12 16 1011.0 1011.3 0.2
 
Date/Time
EDT
Temp
°C
App
Temp
°C
Dew
Point
Rel
Hum
%
Delta-T
°C
Wind Press
QNH
hPa
Press
MSL
hPa
Rain
since 9 am
mm
Dir
 
Spd
km/h
Gust
km/h
Spd
kts
Gust
kts
18/11:30pm 6.8 1.6 5.7 93 0.5 N 22 26 12 14 1011.2 - 0.2
18/11:00pm 6.8 2.0 5.7 93 0.5 N 20 26 11 14 1011.3 - 0.2
18/10:30pm 6.7 1.9 5.5 92 0.5 N 20 26 11 14 1011.2 - 0.2
18/10:00pm 6.7 1.5 5.5 92 0.5 N 22 24 12 13 1011.2 - 0.2
18/09:30pm 6.7 1.8 5.3 91 0.6 N 20 26 11 14 1011.0 - 0.2
18/09:00pm 6.7 1.8 5.3 91 0.6 N 20 28 11 15 1010.8 1011.1 0.2
18/08:30pm 6.9 1.7 5.4 90 0.7 N 22 30 12 16 1010.6 - 0.2
18/08:00pm 7.1 1.9 5.4 89 0.8 N 22 30 12 16 1010.3 - 0.2
18/07:30pm 7.3 2.4 5.3 87 0.9 N 20 28 11 15 1010.1 - 0.2
18/07:00pm 7.4 2.6 5.4 87 0.9 N 20 24 11 13 1009.9 - 0.2
18/06:30pm 7.6 3.0 5.4 86 1.0 N 19 20 10 11 1009.6 - 0.2
18/06:00pm 7.6 2.7 5.2 85 1.1 N 20 24 11 13 1009.3 1009.6 0.2
18/05:30pm 8.2 3.4 5.7 84 1.1 N 20 24 11 13 1009.1 - 0.2
18/05:00pm 8.2 4.0 5.5 83 1.2 N 17 20 9 11 1009.0 - 0.2
18/04:30pm 8.5 3.9 5.4 81 1.4 N 19 20 10 11 1008.8 - 0.2
18/04:00pm 8.5 3.9 5.4 81 1.4 N 19 20 10 11 1008.5 - 0.2
18/03:30pm 9.1 4.5 5.8 80 1.5 NNW 19 20 10 11 1008.3 - 0.2
18/03:00pm 8.8 3.5 5.0 77 1.7 NNW 22 24 12 13 1007.9 1008.2 0.2
18/02:30pm 9.6 4.8 5.6 76 1.8 NNW 20 28 11 15 1007.6 - 0.2
18/02:00pm 9.2 3.9 4.8 74 2.0 NNW 22 28 12 15 1007.3 - 0.2
18/01:30pm 8.6 2.1 4.6 76 1.8 NNE 28 33 15 18 1006.8 - 0.2
18/12:30pm 9.1 1.8 4.3 72 2.1 N 32 35 17 19 1006.1 - 0.2
18/12:00pm 9.2 1.9 4.6 73 2.0 N 32 37 17 20 1005.7 1006.0 0.0
18/11:30am 9.0 1.5 4.6 74 1.9 N 33 41 18 22 1005.2 - 0.0
18/11:00am 8.9 1.0 4.3 73 2.0 NW 35 41 19 22 1004.6 - 0.0
18/10:30am 8.4 -0.4 3.8 73 2.0 NNW 39 46 21 25 1004.0 - 0.0
18/10:23am 8.5 -0.2 4.1 74 1.9 NNW 39 46 21 25 1003.9 - 0.0
18/10:09am 8.4 0.1 4.2 75 1.8 N 37 41 20 22 1003.6 - 0.0
18/10:00am 8.3 -0.1 3.9 74 1.9 NNW 37 44 20 24 1003.3 - 0.0
18/09:49am 8.3 -0.4 4.1 75 1.8 NW 39 44 21 24 1003.1 - 0.0
18/09:30am 7.7 -1.2 3.2 73 1.9 WNW 39 48 21 26 1002.5 - 0.0
18/09:00am 7.5 -2.7 3.2 74 1.8 WNW 46 57 25 31 1001.6 1001.9 0.6
18/08:30am 7.3 -2.9 3.0 74 1.8 WNW 46 57 25 31 1000.6 - 0.6
18/08:00am 6.9 -4.1 3.2 77 1.6 W 50 61 27 33 999.5 - 0.6
18/07:30am 6.7 -3.9 3.1 78 1.5 W 48 59 26 32 998.3 - 0.6
18/07:00am 6.3 -4.9 3.8 84 1.1 W 52 72 28 39 997.3 - 0.6
18/06:36am 6.3 -5.9 3.5 82 1.2 W 57 76 31 41 995.9 - 0.6
18/06:30am 6.0 -6.7 3.2 82 1.2 W 59 74 32 40 995.4 - 0.6
18/06:06am 5.8 -7.6 3.3 84 1.0 W 63 82 34 44 994.2 - 0.6
18/06:00am 5.8 -8.0 3.3 84 1.1 W 65 82 35 44 993.9 994.2 0.6
18/05:30am 5.8 -6.9 3.3 84 1.0 W 59 78 32 42 992.5 - 0.6
18/05:28am 5.7 -7.0 3.2 84 1.0 W 59 78 32 42 992.3 - 0.6
18/05:26am 5.7 -6.4 3.4 85 1.0 W 56 63 30 34 992.3 - 0.6
18/05:00am 5.4 -10.5 3.1 85 0.9 W 76 96 41 52 990.8 - 0.6
18/04:30am 5.1 -10.4 3.1 87 0.8 W 74 106 40 57 988.8 - 0.6
18/04:25am 5.2 -9.3 3.5 89 0.7 W 69 91 37 49 988.6 - 0.6
18/04:00am 5.4 -9.0 4.1 91 0.6 W 69 91 37 49 986.6 - 0.6
18/03:57am 5.5 -9.1 4.2 91 0.6 WNW 70 91 38 49 986.5 - 0.6
18/03:33am 5.8 -9.0 4.8 93 0.4 WNW 72 91 39 49 984.5 - 0.6
18/03:30am 5.8 -9.0 4.8 93 0.4 WNW 72 87 39 47 984.1 - 0.6
18/03:25am 5.9 -8.9 5.0 94 0.4 W 72 85 39 46 983.6 - 0.6
18/03:15am 6.3 -7.4 5.6 95 0.3 NW 67 76 36 41 982.6 - 0.6
18/03:13am 6.4 -8.6 5.7 95 0.3 NNW 74 83 40 45 982.5 - 0.6
18/03:06am 6.9 -3.9 6.2 95 0.3 NNW 52 82 28 44 982.1 - 0.6
18/03:00am 7.0 -3.3 6.3 95 0.3 NNW 50 65 27 35 981.8 982.1 0.6
18/02:48am 7.0 -4.1 6.3 95 0.3 NNW 54 72 29 39 981.1 - 0.6
18/02:30am 7.0 -5.1 6.1 94 0.4 NNW 59 76 32 41 980.0 - 0.6
18/02:02am 7.4 -5.0 6.7 95 0.3 N 61 82 33 44 978.1 - 0.6
18/02:00am 7.2 -4.4 6.5 95 0.3 N 57 74 31 40 978.3 - 0.6
18/01:32am 6.9 -4.9 5.8 93 0.5 N 57 76 31 41 979.8 - 0.6
18/01:30am 7.0 -5.1 5.9 93 0.5 N 59 76 32 41 979.9 - 0.6
18/01:00am 7.9 -2.3 7.0 94 0.4 N 50 70 27 38 981.0 - 0.6
18/12:44am 8.5 -2.3 7.6 94 0.4 N 54 95 29 51 981.4 - 0.6
18/12:30am 8.5 1.7 7.7 95 0.4 N 33 74 18 40 982.0 - 0.4
18/12:27am 8.4 1.7 7.5 94 0.4 N 32 74 17 40 982.2 - 0.4
18/12:00am 8.4 4.0 7.5 94 0.4 N 20 43 11 23 983.1 983.4 0.2
 
Date/Time
EDT
Temp
°C
App
Temp
°C
Dew
Point
Rel
Hum
%
Delta-T
°C
Wind Press
QNH
hPa
Press
MSL
hPa
Rain
since 9 am
mm
Dir
 
Spd
km/h
Gust
km/h
Spd
kts
Gust
kts
17/11:30pm 8.5 3.4 7.6 94 0.4 N 24 48 13 26 984.2 - 0.2
17/11:00pm 8.6 4.2 7.5 93 0.5 N 20 41 11 22 985.2 - 0.2
17/10:30pm 8.7 3.6 7.6 93 0.5 N 24 46 13 25 986.2 - 0.2
17/10:00pm 8.8 1.3 7.9 94 0.4 N 37 72 20 39 987.0 - 0.2
17/09:30pm 8.7 0.0 7.9 95 0.4 N 43 67 23 36 987.6 - 0.2
17/09:00pm 8.4 1.8 7.6 95 0.4 N 32 57 17 31 988.1 988.4 0.2
17/08:30pm 8.3 2.4 7.5 95 0.4 N 28 54 15 29 988.1 - 0.2
17/08:00pm 8.4 1.6 7.6 95 0.4 N 33 59 18 32 988.7 - 0.0
17/07:30pm 8.2 1.3 7.3 94 0.4 N 33 57 18 31 989.2 - 0.0
17/07:00pm 8.3 2.0 7.2 93 0.5 N 30 70 16 38 989.3 - 0.0
17/06:48pm 8.3 1.9 7.1 92 0.6 N 30 61 16 33 989.4 - 0.0
17/06:30pm 8.3 3.8 7.1 92 0.6 N 20 43 11 23 989.7 - 0.0
17/06:00pm 8.1 2.8 6.9 92 0.6 N 24 52 13 28 990.2 990.5 0.0
17/05:30pm 8.4 1.4 7.0 91 0.7 N 33 59 18 32 990.7 - 0.0
17/05:00pm 8.4 0.7 7.0 91 0.7 N 37 69 20 37 990.9 - 0.0
17/04:30pm 8.5 1.2 7.1 91 0.7 N 35 69 19 37 991.2 - 0.0
17/04:00pm 8.8 0.0 7.3 90 0.7 N 43 72 23 39 991.9 - 0.0
17/03:30pm 9.0 0.3 7.5 90 0.7 N 43 69 23 37 992.2 - 0.0
17/03:00pm 9.3 0.6 7.7 90 0.8 N 43 80 23 43 992.3 992.6 0.0
17/02:30pm 9.1 0.4 7.5 90 0.8 N 43 70 23 38 992.8 - 0.0
17/02:04pm 9.1 0.4 7.5 90 0.8 N 43 63 23 34 993.3 - 0.0
17/02:00pm 9.3 0.4 7.7 90 0.8 N 44 61 24 33 993.4 - 0.0
17/01:30pm 9.2 -0.5 7.6 90 0.8 N 48 70 26 38 993.7 - 0.0
17/01:00pm 9.3 0.1 8.1 92 0.6 N 46 67 25 36 993.9 - 0.0
17/12:30pm 9.2 -1.1 8.3 94 0.4 N 52 76 28 41 994.2 - 0.0
17/12:00pm 9.0 -0.9 8.1 94 0.4 N 50 72 27 39 994.4 994.7 0.0
17/11:36am 8.8 -0.8 8.0 95 0.4 N 48 67 26 36 994.6 - 0.0
17/11:30am 8.7 -0.9 7.9 95 0.4 N 48 63 26 34 994.7 - 0.0
17/11:00am 8.7 -0.9 7.9 95 0.4 N 48 61 26 33 995.0 - 0.0
17/10:30am 8.6 -1.7 8.0 96 0.3 N 52 70 28 38 995.3 - 0.0
17/10:03am 8.5 -1.5 7.9 96 0.3 N 50 72 27 39 995.5 - 0.0
17/10:00am 8.4 -1.6 7.8 96 0.3 N 50 67 27 36 995.4 - 0.0
17/09:30am 8.6 -0.6 8.0 96 0.3 N 46 70 25 38 995.9 - 0.0
17/09:04am 8.5 -1.5 7.9 96 0.3 N 50 69 27 37 996.1 - 0.0
17/09:00am 8.5 -1.5 7.9 96 0.3 N 50 59 27 32 996.1 996.4 0.2
17/08:44am 8.6 -1.4 8.0 96 0.3 N 50 69 27 37 996.3 - 0.2
17/08:30am 8.6 -1.4 8.0 96 0.3 N 50 65 27 35 996.2 - 0.2
17/08:07am 8.4 -1.6 7.8 96 0.3 N 50 69 27 37 996.5 - 0.2
17/08:00am 8.5 -1.9 7.9 96 0.3 N 52 65 28 35 996.6 - 0.2
17/07:30am 8.6 -1.7 8.0 96 0.3 N 52 78 28 42 996.6 - 0.2
17/07:00am 8.4 -1.2 8.0 97 0.2 N 48 67 26 36 996.7 - 0.2
17/06:57am 8.4 -0.8 8.0 97 0.2 N 46 65 25 35 996.8 - 0.2
17/06:30am 8.4 -0.4 8.0 97 0.2 N 44 54 24 29 997.2 - 0.2
17/06:00am 8.3 -1.0 7.7 96 0.3 N 46 56 25 30 997.5 997.8 0.2
17/05:33am 8.4 -1.2 8.0 97 0.2 N 48 69 26 37 997.5 - 0.2
17/05:30am 8.4 -1.2 8.0 97 0.2 N 48 59 26 32 997.6 - 0.2
17/05:00am 8.5 -0.7 8.1 97 0.2 N 46 69 25 37 997.9 - 0.2
17/04:39am 8.4 -0.4 8.0 97 0.2 N 44 63 24 34 998.0 - 0.2
17/04:30am 8.2 -0.1 7.8 97 0.2 N 41 52 22 28 998.3 - 0.2
17/04:00am 8.2 0.7 7.8 97 0.2 N 37 44 20 24 998.7 - 0.2
17/03:30am 8.1 -0.6 7.5 96 0.3 N 43 57 23 31 998.9 - 0.2
17/03:00am 8.5 1.7 7.9 96 0.3 N 33 57 18 31 998.9 999.2 0.2
17/02:30am 8.5 1.7 7.9 96 0.3 N 33 52 18 28 999.1 - 0.2
17/02:03am 8.3 0.4 7.7 96 0.3 N 39 61 21 33 999.9 - 0.2
17/02:00am 8.3 0.4 7.7 96 0.3 N 39 52 21 28 1000.0 - 0.2
17/01:30am 8.2 2.3 7.6 96 0.3 N 28 59 15 32 1000.3 - 0.2
17/01:00am 8.2 1.9 7.4 95 0.4 N 30 56 16 30 1000.7 - 0.2
17/12:30am 8.4 2.9 7.6 95 0.4 N 26 56 14 30 1001.1 - 0.2
17/12:29am 8.4 2.5 7.6 95 0.4 N 28 56 15 30 1001.2 - 0.2
17/12:20am 8.4 2.1 7.6 95 0.4 N 30 44 16 24 1001.5 - 0.2
17/12:00am 8.1 5.0 7.3 95 0.4 ENE 13 26 7 14 1001.6 1001.9 0.2
 
Date/Time
EDT
Temp
°C
App
Temp
°C
Dew
Point
Rel
Hum
%
Delta-T
°C
Wind Press
QNH
hPa
Press
MSL
hPa
Rain
since 9 am
mm
Dir
 
Spd
km/h
Gust
km/h
Spd
kts
Gust
kts
16/11:30pm 8.2 3.8 7.4 95 0.4 ENE 20 28 11 15 1002.2 - 0.2
16/11:00pm 8.5 3.0 7.7 95 0.4 N 26 41 14 22 1002.7 - 0.2
16/10:30pm 8.5 2.6 7.7 95 0.4 NNE 28 48 15 26 1002.9 - 0.2
16/10:15pm 8.4 2.5 7.6 95 0.4 N 28 46 15 25 1003.0 - 0.2
16/10:00pm 8.1 2.5 7.3 95 0.4 NNE 26 43 14 23 1002.9 - 0.2
16/09:45pm 8.2 2.3 7.6 96 0.3 N 28 46 15 25 1003.3 - 0.2
16/09:30pm 8.3 2.9 7.9 97 0.2 N 26 37 14 20 1003.7 - 0.2
16/09:00pm 7.0 4.5 6.6 97 0.2 NW 9 15 5 8 1003.8 1004.1 0.2
16/08:30pm 6.6 2.9 6.2 97 0.2 WNW 15 19 8 10 1004.0 - 0.2
16/08:00pm 6.5 1.8 5.9 96 0.3 NNW 20 24 11 13 1004.2 - 0.2

Other Formats:

Comma delimited format used in spreadsheet applications
http://www.bom.gov.au/fwo/IDT60803/IDT60803.94998.axf

JavaScript Object Notation format (JSON) in row-major order
http://www.bom.gov.au/fwo/IDT60803/IDT60803.94998.json